메인 페이지
METAR-TAF:

METAR-TAF

공항 :

몽고메리, 앨라배마, 미국

위도: 32-23N, 경도: 086-22W, 고도: 51m

현재 날씨관측

예보는 19분 전, 00:56시(UTC)에 발표되었습니다.
무풍
온도 18°C
습도 94%
기압 1014 hPa
시정: 16.1km
맑음

METAR: KMXF 210056Z AUTO 00000KT 10SM CLR 18/17 A2993 RMK AO2 SLP137 T01830168

시각: 20:15 (01:15 UTC)

예보

예보는 3 시간 30분 전, 21:45시(UTC)에 발표되었습니다.
예보 대상 시간: 20일 21시부터 22일 01시까지 (UTC)
남동6kt
시정 10km 이상
고도 1500ft 상공 구름 보통
전환 중
21일 11시부터 21일 12시까지 (UTC)
남동6kt
시정 10km 이상
고도 900ft 상공 구름 많음
고도 3000ft 상공 흐림
전환 중
21일 16시부터 21일 17시까지 (UTC)
남남동9kt
시정 10km 이상
고도 2000ft 상공 흐림
전환 중
21일 23시부터 21일 24시까지 (UTC)
동남동6kt
시정: 2111m
고도 1600ft 상공 구름 보통
약한소나기

TAF: KMXF 202145Z 2021/2201 13006KT 9999 SCT015 QNH2988INS BECMG 2111/2112 13006KT 9999 BKN009 OVC030 QNH2992INS BECMG 2116/2117 16009KT 9999 OVC020 QNH2996INS BECMG 2123/2124 12006KT 8000 -SHRA SCT016 QNH2989INS TX25/2021Z TN16/2110Z LAST NO AMDS AFT 2023 NEXT 2111

4,000개 이상의 공항 관측 자료 및 예보 (METAR 및 TAF 보고).

지도상에서 검색 가능한 기상관측소가 노란 점과 빨간 점으로 표시되어 있습니다.

기상관측소 명을 보려면 표시 위로 마우스를 이동하세요.

날씨 관측과 예보를 보려면 클릭하세요.

지도 변경 : 확대하려면 엑스 표시가 있는 녹색 버튼, 축소하려면 빼기 표시가 있는 녹색 버튼, 다음 페이지의 지도를 보려면 녹색 화살표를 클릭하세요.


METAR-TAF: